sensor_id;sensor_type;location;lat;lon;timestamp;P1;durP1;ratioP1;P2;durP2;ratioP2
30046;SDS011;16878;52.542;13.426;2023-03-19T00:02:15;29.27;;;17.92;;
30046;SDS011;16878;52.542;13.426;2023-03-19T00:04:41;26.17;;;15.23;;
30046;SDS011;16878;52.542;13.426;2023-03-19T00:07:07;25.75;;;15.88;;
30046;SDS011;16878;52.542;13.426;2023-03-19T00:09:32;26.45;;;17.30;;
30046;SDS011;16878;52.542;13.426;2023-03-19T00:11:58;41.38;;;21.95;;
30046;SDS011;16878;52.542;13.426;2023-03-19T00:14:24;29.30;;;18.40;;
30046;SDS011;16878;52.542;13.426;2023-03-19T00:16:50;29.52;;;18.55;;
30046;SDS011;16878;52.542;13.426;2023-03-19T00:19:16;31.23;;;19.02;;
30046;SDS011;16878;52.542;13.426;2023-03-19T00:21:41;39.33;;;23.48;;
30046;SDS011;16878;52.542;13.426;2023-03-19T00:24:07;38.75;;;22.98;;
30046;SDS011;16878;52.542;13.426;2023-03-19T00:26:33;25.92;;;17.88;;
30046;SDS011;16878;52.542;13.426;2023-03-19T00:28:59;28.23;;;17.08;;
30046;SDS011;16878;52.542;13.426;2023-03-19T00:31:26;30.80;;;16.92;;
30046;SDS011;16878;52.542;13.426;2023-03-19T00:33:53;30.92;;;19.65;;
30046;SDS011;16878;52.542;13.426;2023-03-19T00:36:21;33.85;;;23.27;;
30046;SDS011;16878;52.542;13.426;2023-03-19T00:38:49;34.85;;;20.05;;
30046;SDS011;16878;52.542;13.426;2023-03-19T00:41:15;34.13;;;19.40;;
30046;SDS011;16878;52.542;13.426;2023-03-19T00:43:42;28.98;;;17.50;;
30046;SDS011;16878;52.542;13.426;2023-03-19T00:46:08;31.13;;;16.48;;
30046;SDS011;16878;52.542;13.426;2023-03-19T00:48:34;30.27;;;17.60;;
30046;SDS011;16878;52.542;13.426;2023-03-19T00:51:04;33.65;;;20.33;;
30046;SDS011;16878;52.542;13.426;2023-03-19T00:53:31;36.10;;;20.17;;
30046;SDS011;16878;52.542;13.426;2023-03-19T00:55:57;39.72;;;22.70;;
30046;SDS011;16878;52.542;13.426;2023-03-19T00:58:23;34.90;;;22.25;;
30046;SDS011;16878;52.542;13.426;2023-03-19T01:00:51;35.15;;;20.92;;
30046;SDS011;16878;52.542;13.426;2023-03-19T01:03:18;35.22;;;20.42;;
30046;SDS011;16878;52.542;13.426;2023-03-19T01:05:45;34.65;;;21.77;;
30046;SDS011;16878;52.542;13.426;2023-03-19T01:08:13;31.65;;;19.88;;
30046;SDS011;16878;52.542;13.426;2023-03-19T01:10:43;31.95;;;20.10;;
30046;SDS011;16878;52.542;13.426;2023-03-19T01:13:09;37.60;;;22.33;;
30046;SDS011;16878;52.542;13.426;2023-03-19T01:15:36;36.72;;;21.35;;
30046;SDS011;16878;52.542;13.426;2023-03-19T01:18:02;37.55;;;22.23;;
30046;SDS011;16878;52.542;13.426;2023-03-19T01:20:28;38.97;;;20.75;;
30046;SDS011;16878;52.542;13.426;2023-03-19T01:22:54;38.45;;;21.90;;
30046;SDS011;16878;52.542;13.426;2023-03-19T01:25:20;35.80;;;22.27;;
30046;SDS011;16878;52.542;13.426;2023-03-19T01:27:46;41.55;;;23.65;;
30046;SDS011;16878;52.542;13.426;2023-03-19T01:30:11;33.90;;;21.88;;
30046;SDS011;16878;52.542;13.426;2023-03-19T01:32:37;33.03;;;20.67;;
30046;SDS011;16878;52.542;13.426;2023-03-19T01:35:03;41.15;;;21.40;;
30046;SDS011;16878;52.542;13.426;2023-03-19T01:37:29;30.17;;;19.55;;
30046;SDS011;16878;52.542;13.426;2023-03-19T01:39:55;35.63;;;21.52;;
30046;SDS011;16878;52.542;13.426;2023-03-19T01:42:21;37.67;;;21.33;;
30046;SDS011;16878;52.542;13.426;2023-03-19T01:44:48;28.58;;;18.42;;
30046;SDS011;16878;52.542;13.426;2023-03-19T01:47:18;30.35;;;18.45;;
30046;SDS011;16878;52.542;13.426;2023-03-19T01:49:57;29.55;;;19.13;;
30046;SDS011;16878;52.542;13.426;2023-03-19T01:52:24;33.67;;;21.35;;
30046;SDS011;16878;52.542;13.426;2023-03-19T01:54:53;39.88;;;20.50;;
30046;SDS011;16878;52.542;13.426;2023-03-19T01:57:20;46.67;;;28.48;;
30046;SDS011;16878;52.542;13.426;2023-03-19T01:59:49;34.92;;;20.40;;
30046;SDS011;16878;52.542;13.426;2023-03-19T02:02:20;31.67;;;19.70;;
30046;SDS011;16878;52.542;13.426;2023-03-19T02:04:57;30.80;;;18.58;;
30046;SDS011;16878;52.542;13.426;2023-03-19T02:07:28;35.65;;;20.45;;
30046;SDS011;16878;52.542;13.426;2023-03-19T02:09:56;37.17;;;23.37;;
30046;SDS011;16878;52.542;13.426;2023-03-19T02:12:25;34.40;;;22.17;;
30046;SDS011;16878;52.542;13.426;2023-03-19T02:14:54;33.20;;;20.60;;
30046;SDS011;16878;52.542;13.426;2023-03-19T02:17:20;34.30;;;19.25;;
30046;SDS011;16878;52.542;13.426;2023-03-19T02:22:12;29.48;;;18.67;;
30046;SDS011;16878;52.542;13.426;2023-03-19T02:24:44;32.78;;;19.23;;
30046;SDS011;16878;52.542;13.426;2023-03-19T02:27:26;30.13;;;17.75;;
30046;SDS011;16878;52.542;13.426;2023-03-19T02:29:52;36.40;;;19.60;;
30046;SDS011;16878;52.542;13.426;2023-03-19T02:32:18;36.63;;;23.63;;
30046;SDS011;16878;52.542;13.426;2023-03-19T02:34:44;25.60;;;17.75;;
30046;SDS011;16878;52.542;13.426;2023-03-19T02:37:14;34.67;;;18.90;;
30046;SDS011;16878;52.542;13.426;2023-03-19T02:42:11;34.13;;;19.23;;
30046;SDS011;16878;52.542;13.426;2023-03-19T02:44:38;30.58;;;18.70;;
30046;SDS011;16878;52.542;13.426;2023-03-19T02:47:04;30.98;;;18.15;;
30046;SDS011;16878;52.542;13.426;2023-03-19T02:49:30;28.15;;;17.77;;
30046;SDS011;16878;52.542;13.426;2023-03-19T02:51:55;31.40;;;17.05;;
30046;SDS011;16878;52.542;13.426;2023-03-19T02:54:21;27.10;;;16.80;;
30046;SDS011;16878;52.542;13.426;2023-03-19T02:56:47;27.05;;;17.75;;
30046;SDS011;16878;52.542;13.426;2023-03-19T02:59:13;28.02;;;17.27;;
30046;SDS011;16878;52.542;13.426;2023-03-19T03:01:39;29.60;;;18.40;;
30046;SDS011;16878;52.542;13.426;2023-03-19T03:04:05;31.85;;;20.55;;
30046;SDS011;16878;52.542;13.426;2023-03-19T03:06:30;32.75;;;20.00;;
30046;SDS011;16878;52.542;13.426;2023-03-19T03:08:56;28.63;;;17.50;;
30046;SDS011;16878;52.542;13.426;2023-03-19T03:11:22;31.50;;;16.95;;
30046;SDS011;16878;52.542;13.426;2023-03-19T03:13:47;28.08;;;18.35;;
30046;SDS011;16878;52.542;13.426;2023-03-19T03:16:13;29.83;;;17.65;;
30046;SDS011;16878;52.542;13.426;2023-03-19T03:18:39;29.48;;;19.30;;
30046;SDS011;16878;52.542;13.426;2023-03-19T03:21:05;28.90;;;18.90;;
30046;SDS011;16878;52.542;13.426;2023-03-19T03:23:31;34.17;;;19.67;;
30046;SDS011;16878;52.542;13.426;2023-03-19T03:25:57;28.67;;;18.90;;
30046;SDS011;16878;52.542;13.426;2023-03-19T03:28:22;31.42;;;17.95;;
30046;SDS011;16878;52.542;13.426;2023-03-19T03:30:48;27.73;;;16.73;;
30046;SDS011;16878;52.542;13.426;2023-03-19T03:33:14;29.67;;;17.25;;
30046;SDS011;16878;52.542;13.426;2023-03-19T03:35:41;30.77;;;17.75;;
30046;SDS011;16878;52.542;13.426;2023-03-19T03:38:07;30.17;;;17.45;;
30046;SDS011;16878;52.542;13.426;2023-03-19T03:40:33;26.60;;;17.42;;
30046;SDS011;16878;52.542;13.426;2023-03-19T03:43:00;31.73;;;18.17;;
30046;SDS011;16878;52.542;13.426;2023-03-19T03:45:26;24.77;;;17.23;;
30046;SDS011;16878;52.542;13.426;2023-03-19T03:47:52;27.45;;;17.33;;
30046;SDS011;16878;52.542;13.426;2023-03-19T03:50:18;32.25;;;19.98;;
30046;SDS011;16878;52.542;13.426;2023-03-19T03:52:43;33.03;;;20.02;;
30046;SDS011;16878;52.542;13.426;2023-03-19T03:55:09;29.80;;;18.67;;
30046;SDS011;16878;52.542;13.426;2023-03-19T03:57:35;29.15;;;18.55;;
30046;SDS011;16878;52.542;13.426;2023-03-19T04:00:01;32.10;;;18.70;;
30046;SDS011;16878;52.542;13.426;2023-03-19T04:02:27;29.88;;;18.77;;
30046;SDS011;16878;52.542;13.426;2023-03-19T04:04:53;32.47;;;18.60;;
30046;SDS011;16878;52.542;13.426;2023-03-19T04:07:20;30.92;;;19.38;;
30046;SDS011;16878;52.542;13.426;2023-03-19T04:09:45;26.02;;;17.52;;
30046;SDS011;16878;52.542;13.426;2023-03-19T04:12:15;29.38;;;18.88;;
30046;SDS011;16878;52.542;13.426;2023-03-19T04:14:41;34.53;;;18.83;;
30046;SDS011;16878;52.542;13.426;2023-03-19T04:17:07;27.92;;;18.15;;
30046;SDS011;16878;52.542;13.426;2023-03-19T04:19:33;33.47;;;18.92;;
30046;SDS011;16878;52.542;13.426;2023-03-19T04:21:58;29.23;;;17.75;;
30046;SDS011;16878;52.542;13.426;2023-03-19T04:24:24;31.42;;;18.00;;
30046;SDS011;16878;52.542;13.426;2023-03-19T04:26:50;27.08;;;19.77;;
30046;SDS011;16878;52.542;13.426;2023-03-19T04:29:17;28.25;;;18.52;;
30046;SDS011;16878;52.542;13.426;2023-03-19T04:31:43;31.17;;;19.52;;
30046;SDS011;16878;52.542;13.426;2023-03-19T04:34:09;27.92;;;19.10;;
30046;SDS011;16878;52.542;13.426;2023-03-19T04:36:38;31.50;;;20.50;;
30046;SDS011;16878;52.542;13.426;2023-03-19T04:39:04;29.60;;;19.05;;
30046;SDS011;16878;52.542;13.426;2023-03-19T04:41:30;28.90;;;19.38;;
30046;SDS011;16878;52.542;13.426;2023-03-19T04:43:56;35.35;;;19.90;;
30046;SDS011;16878;52.542;13.426;2023-03-19T04:46:22;29.33;;;19.02;;
30046;SDS011;16878;52.542;13.426;2023-03-19T04:48:47;29.27;;;19.15;;
30046;SDS011;16878;52.542;13.426;2023-03-19T04:51:13;29.65;;;19.85;;
30046;SDS011;16878;52.542;13.426;2023-03-19T04:53:39;34.97;;;20.92;;
30046;SDS011;16878;52.542;13.426;2023-03-19T04:56:05;31.73;;;20.48;;
30046;SDS011;16878;52.542;13.426;2023-03-19T04:58:32;30.20;;;18.55;;
30046;SDS011;16878;52.542;13.426;2023-03-19T05:00:58;31.83;;;20.00;;
30046;SDS011;16878;52.542;13.426;2023-03-19T05:03:24;31.17;;;20.70;;
30046;SDS011;16878;52.542;13.426;2023-03-19T05:05:51;33.33;;;20.50;;
30046;SDS011;16878;52.542;13.426;2023-03-19T05:08:18;29.87;;;20.13;;
30046;SDS011;16878;52.542;13.426;2023-03-19T05:10:44;37.45;;;21.30;;
30046;SDS011;16878;52.542;13.426;2023-03-19T05:13:09;29.15;;;19.63;;
30046;SDS011;16878;52.542;13.426;2023-03-19T05:15:35;32.50;;;21.45;;
30046;SDS011;16878;52.542;13.426;2023-03-19T05:18:01;32.55;;;21.50;;
30046;SDS011;16878;52.542;13.426;2023-03-19T05:20:26;37.47;;;22.05;;
30046;SDS011;16878;52.542;13.426;2023-03-19T05:22:52;36.88;;;22.27;;
30046;SDS011;16878;52.542;13.426;2023-03-19T05:25:18;34.08;;;22.80;;
30046;SDS011;16878;52.542;13.426;2023-03-19T05:27:44;39.20;;;23.00;;
30046;SDS011;16878;52.542;13.426;2023-03-19T05:30:10;40.47;;;22.23;;
30046;SDS011;16878;52.542;13.426;2023-03-19T05:32:36;37.00;;;23.38;;
30046;SDS011;16878;52.542;13.426;2023-03-19T05:35:02;34.72;;;23.33;;
30046;SDS011;16878;52.542;13.426;2023-03-19T05:37:29;40.08;;;23.92;;
30046;SDS011;16878;52.542;13.426;2023-03-19T05:39:55;37.38;;;24.23;;
30046;SDS011;16878;52.542;13.426;2023-03-19T05:42:21;40.72;;;23.40;;
30046;SDS011;16878;52.542;13.426;2023-03-19T05:44:47;34.22;;;24.42;;
30046;SDS011;16878;52.542;13.426;2023-03-19T05:47:12;31.60;;;21.88;;
30046;SDS011;16878;52.542;13.426;2023-03-19T05:49:38;31.73;;;20.10;;
30046;SDS011;16878;52.542;13.426;2023-03-19T05:52:04;29.20;;;19.17;;
30046;SDS011;16878;52.542;13.426;2023-03-19T05:54:30;30.58;;;21.35;;
30046;SDS011;16878;52.542;13.426;2023-03-19T05:56:55;35.60;;;21.77;;
30046;SDS011;16878;52.542;13.426;2023-03-19T05:59:21;45.20;;;28.08;;
30046;SDS011;16878;52.542;13.426;2023-03-19T06:01:47;30.75;;;19.67;;
30046;SDS011;16878;52.542;13.426;2023-03-19T06:04:13;27.98;;;20.17;;
30046;SDS011;16878;52.542;13.426;2023-03-19T06:06:39;26.15;;;17.77;;
30046;SDS011;16878;52.542;13.426;2023-03-19T06:09:05;28.40;;;20.02;;
30046;SDS011;16878;52.542;13.426;2023-03-19T06:11:30;22.88;;;16.88;;
30046;SDS011;16878;52.542;13.426;2023-03-19T06:13:56;29.92;;;19.27;;
30046;SDS011;16878;52.542;13.426;2023-03-19T06:16:22;27.70;;;18.45;;
30046;SDS011;16878;52.542;13.426;2023-03-19T06:18:47;27.45;;;18.58;;
30046;SDS011;16878;52.542;13.426;2023-03-19T06:21:13;27.58;;;17.63;;
30046;SDS011;16878;52.542;13.426;2023-03-19T06:23:39;27.92;;;20.58;;
30046;SDS011;16878;52.542;13.426;2023-03-19T06:26:04;26.52;;;17.58;;
30046;SDS011;16878;52.542;13.426;2023-03-19T06:28:30;25.02;;;16.70;;
30046;SDS011;16878;52.542;13.426;2023-03-19T06:30:57;27.25;;;16.25;;
30046;SDS011;16878;52.542;13.426;2023-03-19T06:33:22;27.80;;;17.48;;
30046;SDS011;16878;52.542;13.426;2023-03-19T06:35:51;25.83;;;16.15;;
30046;SDS011;16878;52.542;13.426;2023-03-19T06:38:17;23.33;;;16.05;;
30046;SDS011;16878;52.542;13.426;2023-03-19T06:40:43;21.13;;;15.73;;
30046;SDS011;16878;52.542;13.426;2023-03-19T06:43:09;25.05;;;15.68;;
30046;SDS011;16878;52.542;13.426;2023-03-19T06:45:34;21.75;;;16.00;;
30046;SDS011;16878;52.542;13.426;2023-03-19T06:48:00;21.95;;;14.40;;
30046;SDS011;16878;52.542;13.426;2023-03-19T06:50:26;19.65;;;14.38;;
30046;SDS011;16878;52.542;13.426;2023-03-19T06:52:52;21.17;;;14.57;;
30046;SDS011;16878;52.542;13.426;2023-03-19T06:55:20;22.80;;;14.07;;
30046;SDS011;16878;52.542;13.426;2023-03-19T06:57:49;22.23;;;14.48;;
30046;SDS011;16878;52.542;13.426;2023-03-19T07:00:15;25.52;;;15.13;;
30046;SDS011;16878;52.542;13.426;2023-03-19T07:02:42;20.42;;;14.55;;
30046;SDS011;16878;52.542;13.426;2023-03-19T07:05:08;20.05;;;15.75;;
30046;SDS011;16878;52.542;13.426;2023-03-19T07:07:34;19.92;;;15.50;;
30046;SDS011;16878;52.542;13.426;2023-03-19T07:10:00;25.80;;;16.58;;
30046;SDS011;16878;52.542;13.426;2023-03-19T07:12:26;20.67;;;15.30;;
30046;SDS011;16878;52.542;13.426;2023-03-19T07:14:52;21.67;;;15.30;;
30046;SDS011;16878;52.542;13.426;2023-03-19T07:17:20;35.13;;;19.52;;
30046;SDS011;16878;52.542;13.426;2023-03-19T07:19:46;31.83;;;20.33;;
30046;SDS011;16878;52.542;13.426;2023-03-19T07:22:12;30.60;;;21.02;;
30046;SDS011;16878;52.542;13.426;2023-03-19T07:24:37;33.20;;;21.77;;
30046;SDS011;16878;52.542;13.426;2023-03-19T07:27:03;29.75;;;21.27;;
30046;SDS011;16878;52.542;13.426;2023-03-19T07:29:29;32.35;;;21.02;;
30046;SDS011;16878;52.542;13.426;2023-03-19T07:31:55;28.27;;;20.65;;
30046;SDS011;16878;52.542;13.426;2023-03-19T07:34:21;30.20;;;21.73;;
30046;SDS011;16878;52.542;13.426;2023-03-19T07:36:47;24.83;;;20.60;;
30046;SDS011;16878;52.542;13.426;2023-03-19T07:39:13;33.15;;;21.92;;
30046;SDS011;16878;52.542;13.426;2023-03-19T07:41:39;29.35;;;20.77;;
30046;SDS011;16878;52.542;13.426;2023-03-19T07:44:05;31.33;;;21.95;;
30046;SDS011;16878;52.542;13.426;2023-03-19T07:46:31;33.53;;;23.35;;
30046;SDS011;16878;52.542;13.426;2023-03-19T07:48:57;41.30;;;25.80;;
30046;SDS011;16878;52.542;13.426;2023-03-19T07:51:22;45.47;;;27.45;;
30046;SDS011;16878;52.542;13.426;2023-03-19T07:53:48;39.15;;;27.58;;
30046;SDS011;16878;52.542;13.426;2023-03-19T07:56:14;38.28;;;28.02;;
30046;SDS011;16878;52.542;13.426;2023-03-19T07:58:39;42.38;;;28.85;;
30046;SDS011;16878;52.542;13.426;2023-03-19T08:01:05;43.42;;;30.88;;
30046;SDS011;16878;52.542;13.426;2023-03-19T08:03:31;46.35;;;28.92;;
30046;SDS011;16878;52.542;13.426;2023-03-19T08:05:57;38.97;;;27.88;;
30046;SDS011;16878;52.542;13.426;2023-03-19T08:08:23;40.05;;;26.88;;
30046;SDS011;16878;52.542;13.426;2023-03-19T08:10:49;37.65;;;25.67;;
30046;SDS011;16878;52.542;13.426;2023-03-19T08:13:17;34.42;;;25.33;;
30046;SDS011;16878;52.542;13.426;2023-03-19T08:15:42;38.30;;;25.30;;
30046;SDS011;16878;52.542;13.426;2023-03-19T08:18:08;36.45;;;24.90;;
30046;SDS011;16878;52.542;13.426;2023-03-19T08:20:34;31.90;;;24.45;;
30046;SDS011;16878;52.542;13.426;2023-03-19T08:22:59;35.83;;;24.33;;
30046;SDS011;16878;52.542;13.426;2023-03-19T08:25:25;39.92;;;25.83;;
30046;SDS011;16878;52.542;13.426;2023-03-19T08:27:51;37.38;;;24.63;;
30046;SDS011;16878;52.542;13.426;2023-03-19T08:30:18;38.60;;;24.15;;
30046;SDS011;16878;52.542;13.426;2023-03-19T08:32:44;34.22;;;23.10;;
30046;SDS011;16878;52.542;13.426;2023-03-19T08:35:09;32.78;;;22.98;;
30046;SDS011;16878;52.542;13.426;2023-03-19T08:37:35;34.53;;;24.48;;
30046;SDS011;16878;52.542;13.426;2023-03-19T08:40:01;33.42;;;23.38;;
30046;SDS011;16878;52.542;13.426;2023-03-19T08:42:28;32.30;;;24.42;;
30046;SDS011;16878;52.542;13.426;2023-03-19T08:44:55;35.20;;;25.30;;
30046;SDS011;16878;52.542;13.426;2023-03-19T08:47:20;40.28;;;25.98;;
30046;SDS011;16878;52.542;13.426;2023-03-19T08:49:48;35.42;;;25.23;;
30046;SDS011;16878;52.542;13.426;2023-03-19T08:52:17;41.17;;;26.98;;
30046;SDS011;16878;52.542;13.426;2023-03-19T08:54:43;37.03;;;25.13;;
30046;SDS011;16878;52.542;13.426;2023-03-19T08:57:09;35.45;;;24.17;;
30046;SDS011;16878;52.542;13.426;2023-03-19T08:59:36;40.33;;;25.70;;
30046;SDS011;16878;52.542;13.426;2023-03-19T09:02:02;35.78;;;25.23;;
30046;SDS011;16878;52.542;13.426;2023-03-19T09:04:27;40.25;;;25.08;;
30046;SDS011;16878;52.542;13.426;2023-03-19T09:06:53;30.67;;;23.27;;
30046;SDS011;16878;52.542;13.426;2023-03-19T09:09:20;33.17;;;23.50;;
30046;SDS011;16878;52.542;13.426;2023-03-19T09:11:47;32.05;;;22.52;;
30046;SDS011;16878;52.542;13.426;2023-03-19T09:14:13;33.22;;;24.60;;
30046;SDS011;16878;52.542;13.426;2023-03-19T09:16:40;37.58;;;24.75;;
30046;SDS011;16878;52.542;13.426;2023-03-19T09:19:07;31.23;;;22.52;;
30046;SDS011;16878;52.542;13.426;2023-03-19T09:21:33;31.45;;;23.23;;
30046;SDS011;16878;52.542;13.426;2023-03-19T09:24:00;37.05;;;23.67;;
30046;SDS011;16878;52.542;13.426;2023-03-19T09:26:26;33.33;;;22.83;;
30046;SDS011;16878;52.542;13.426;2023-03-19T09:28:52;34.20;;;25.38;;
30046;SDS011;16878;52.542;13.426;2023-03-19T09:31:18;37.60;;;25.30;;
30046;SDS011;16878;52.542;13.426;2023-03-19T09:33:43;35.97;;;23.52;;
30046;SDS011;16878;52.542;13.426;2023-03-19T09:36:09;32.03;;;24.00;;
30046;SDS011;16878;52.542;13.426;2023-03-19T09:38:35;37.40;;;24.65;;
30046;SDS011;16878;52.542;13.426;2023-03-19T09:46:01;29.48;;;21.90;;
30046;SDS011;16878;52.542;13.426;2023-03-19T09:48:34;29.45;;;21.90;;
30046;SDS011;16878;52.542;13.426;2023-03-19T09:51:05;32.70;;;22.58;;
30046;SDS011;16878;52.542;13.426;2023-03-19T09:53:48;33.40;;;25.20;;
30046;SDS011;16878;52.542;13.426;2023-03-19T09:56:20;37.40;;;24.17;;
30046;SDS011;16878;52.542;13.426;2023-03-19T09:58:46;34.22;;;22.67;;
30046;SDS011;16878;52.542;13.426;2023-03-19T10:06:33;37.30;;;23.25;;
30046;SDS011;16878;52.542;13.426;2023-03-19T10:17:02;26.70;;;20.17;;
30046;SDS011;16878;52.542;13.426;2023-03-19T10:19:34;33.35;;;19.45;;
30046;SDS011;16878;52.542;13.426;2023-03-19T10:22:07;25.02;;;18.40;;
30046;SDS011;16878;52.542;13.426;2023-03-19T10:24:40;27.92;;;19.25;;
30046;SDS011;16878;52.542;13.426;2023-03-19T10:27:13;26.80;;;18.88;;
30046;SDS011;16878;52.542;13.426;2023-03-19T10:29:40;23.65;;;17.40;;
30046;SDS011;16878;52.542;13.426;2023-03-19T10:34:42;24.73;;;18.25;;
30046;SDS011;16878;52.542;13.426;2023-03-19T10:37:23;21.25;;;17.02;;
30046;SDS011;16878;52.542;13.426;2023-03-19T10:39:51;25.52;;;18.65;;
30046;SDS011;16878;52.542;13.426;2023-03-19T10:47:54;25.65;;;17.02;;
30046;SDS011;16878;52.542;13.426;2023-03-19T10:50:22;25.13;;;17.25;;
30046;SDS011;16878;52.542;13.426;2023-03-19T10:53:37;27.42;;;17.15;;
30046;SDS011;16878;52.542;13.426;2023-03-19T10:55:43;22.42;;;16.63;;
30046;SDS011;16878;52.542;13.426;2023-03-19T10:58:30;24.98;;;17.95;;
30046;SDS011;16878;52.542;13.426;2023-03-19T11:01:05;23.00;;;16.65;;
30046;SDS011;16878;52.542;13.426;2023-03-19T11:03:34;23.58;;;16.60;;
30046;SDS011;16878;52.542;13.426;2023-03-19T11:06:05;21.75;;;16.23;;
30046;SDS011;16878;52.542;13.426;2023-03-19T11:14:09;18.85;;;14.23;;
30046;SDS011;16878;52.542;13.426;2023-03-19T11:16:50;18.70;;;12.98;;
30046;SDS011;16878;52.542;13.426;2023-03-19T11:19:21;15.32;;;11.82;;
30046;SDS011;16878;52.542;13.426;2023-03-19T11:21:53;16.73;;;12.25;;
30046;SDS011;16878;52.542;13.426;2023-03-19T11:24:31;17.90;;;11.60;;
30046;SDS011;16878;52.542;13.426;2023-03-19T11:27:06;14.60;;;11.02;;
30046;SDS011;16878;52.542;13.426;2023-03-19T11:29:38;15.80;;;11.23;;
30046;SDS011;16878;52.542;13.426;2023-03-19T11:55:43;14.65;;;10.95;;
30046;SDS011;16878;52.542;13.426;2023-03-19T12:09:51;16.33;;;11.68;;
30046;SDS011;16878;52.542;13.426;2023-03-19T12:12:24;14.80;;;10.55;;
30046;SDS011;16878;52.542;13.426;2023-03-19T12:20:06;15.05;;;11.02;;
30046;SDS011;16878;52.542;13.426;2023-03-19T12:28:21;19.30;;;13.70;;
30046;SDS011;16878;52.542;13.426;2023-03-19T12:36:22;13.00;;;10.25;;
30046;SDS011;16878;52.542;13.426;2023-03-19T12:38:58;14.02;;;10.13;;
30046;SDS011;16878;52.542;13.426;2023-03-19T12:41:31;18.33;;;10.38;;
30046;SDS011;16878;52.542;13.426;2023-03-19T12:49:00;16.73;;;10.40;;
30046;SDS011;16878;52.542;13.426;2023-03-19T12:51:45;14.65;;;10.60;;
30046;SDS011;16878;52.542;13.426;2023-03-19T12:54:17;13.15;;;10.18;;
30046;SDS011;16878;52.542;13.426;2023-03-19T12:59:38;15.95;;;10.88;;
30046;SDS011;16878;52.542;13.426;2023-03-19T13:02:17;14.18;;;10.57;;
30046;SDS011;16878;52.542;13.426;2023-03-19T13:05:58;18.10;;;12.93;;
30046;SDS011;16878;52.542;13.426;2023-03-19T13:08:22;19.92;;;12.23;;
30046;SDS011;16878;52.542;13.426;2023-03-19T13:11:04;14.15;;;10.85;;
30046;SDS011;16878;52.542;13.426;2023-03-19T13:13:39;18.00;;;10.93;;
30046;SDS011;16878;52.542;13.426;2023-03-19T13:21:53;20.15;;;12.80;;
30046;SDS011;16878;52.542;13.426;2023-03-19T13:24:26;16.40;;;12.70;;
30046;SDS011;16878;52.542;13.426;2023-03-19T13:26:59;19.10;;;13.25;;
30046;SDS011;16878;52.542;13.426;2023-03-19T13:29:27;23.02;;;13.77;;
30046;SDS011;16878;52.542;13.426;2023-03-19T13:31:59;15.10;;;11.90;;
30046;SDS011;16878;52.542;13.426;2023-03-19T13:34:27;23.85;;;12.43;;
30046;SDS011;16878;52.542;13.426;2023-03-19T13:39:36;23.98;;;16.85;;
30046;SDS011;16878;52.542;13.426;2023-03-19T13:42:08;16.73;;;11.82;;
30046;SDS011;16878;52.542;13.426;2023-03-19T13:44:52;14.55;;;12.20;;
30046;SDS011;16878;52.542;13.426;2023-03-19T13:57:54;13.68;;;11.65;;
30046;SDS011;16878;52.542;13.426;2023-03-19T14:05:43;15.95;;;11.93;;
30046;SDS011;16878;52.542;13.426;2023-03-19T14:08:19;21.83;;;12.98;;
30046;SDS011;16878;52.542;13.426;2023-03-19T14:10:51;19.25;;;12.27;;
30046;SDS011;16878;52.542;13.426;2023-03-19T14:13:20;14.65;;;11.52;;
30046;SDS011;16878;52.542;13.426;2023-03-19T14:15:59;14.52;;;11.50;;
30046;SDS011;16878;52.542;13.426;2023-03-19T14:18:46;17.50;;;12.30;;
30046;SDS011;16878;52.542;13.426;2023-03-19T14:21:16;15.88;;;12.20;;
30046;SDS011;16878;52.542;13.426;2023-03-19T14:23:55;17.27;;;11.23;;
30046;SDS011;16878;52.542;13.426;2023-03-19T14:26:54;17.23;;;11.57;;
30046;SDS011;16878;52.542;13.426;2023-03-19T14:29:42;16.58;;;11.18;;
30046;SDS011;16878;52.542;13.426;2023-03-19T14:32:13;18.90;;;12.32;;
30046;SDS011;16878;52.542;13.426;2023-03-19T14:34:42;23.10;;;13.65;;
30046;SDS011;16878;52.542;13.426;2023-03-19T14:39:57;18.23;;;12.55;;
30046;SDS011;16878;52.542;13.426;2023-03-19T14:42:47;16.95;;;12.77;;
30046;SDS011;16878;52.542;13.426;2023-03-19T14:45:40;16.50;;;11.88;;
30046;SDS011;16878;52.542;13.426;2023-03-19T14:50:59;17.05;;;11.60;;
30046;SDS011;16878;52.542;13.426;2023-03-19T14:53:43;19.60;;;13.10;;
30046;SDS011;16878;52.542;13.426;2023-03-19T14:56:20;17.88;;;11.98;;
30046;SDS011;16878;52.542;13.426;2023-03-19T14:58:51;14.38;;;10.48;;
30046;SDS011;16878;52.542;13.426;2023-03-19T15:01:21;17.35;;;11.00;;
30046;SDS011;16878;52.542;13.426;2023-03-19T15:04:00;15.27;;;10.68;;
30046;SDS011;16878;52.542;13.426;2023-03-19T15:06:41;16.13;;;8.90;;
30046;SDS011;16878;52.542;13.426;2023-03-19T15:09:18;12.05;;;9.13;;
30046;SDS011;16878;52.542;13.426;2023-03-19T15:17:35;12.88;;;8.80;;
30046;SDS011;16878;52.542;13.426;2023-03-19T15:20:02;14.95;;;9.13;;
30046;SDS011;16878;52.542;13.426;2023-03-19T15:22:43;13.20;;;9.20;;
30046;SDS011;16878;52.542;13.426;2023-03-19T15:25:17;12.02;;;9.05;;
30046;SDS011;16878;52.542;13.426;2023-03-19T15:27:43;16.20;;;9.90;;
30046;SDS011;16878;52.542;13.426;2023-03-19T15:30:30;14.80;;;9.88;;
30046;SDS011;16878;52.542;13.426;2023-03-19T15:36:26;14.30;;;9.70;;
30046;SDS011;16878;52.542;13.426;2023-03-19T15:39:04;15.73;;;10.55;;
30046;SDS011;16878;52.542;13.426;2023-03-19T15:41:37;17.70;;;10.23;;
30046;SDS011;16878;52.542;13.426;2023-03-19T15:44:11;13.98;;;8.95;;
30046;SDS011;16878;52.542;13.426;2023-03-19T15:46:43;13.65;;;9.38;;
30046;SDS011;16878;52.542;13.426;2023-03-19T15:49:27;18.63;;;10.43;;
30046;SDS011;16878;52.542;13.426;2023-03-19T15:51:57;15.65;;;9.23;;
30046;SDS011;16878;52.542;13.426;2023-03-19T15:54:28;15.38;;;9.75;;
30046;SDS011;16878;52.542;13.426;2023-03-19T15:56:54;13.98;;;9.82;;
30046;SDS011;16878;52.542;13.426;2023-03-19T15:59:22;19.27;;;9.75;;
30046;SDS011;16878;52.542;13.426;2023-03-19T16:01:58;17.58;;;9.80;;
30046;SDS011;16878;52.542;13.426;2023-03-19T16:04:25;13.75;;;9.63;;
30046;SDS011;16878;52.542;13.426;2023-03-19T16:06:53;15.43;;;9.68;;
30046;SDS011;16878;52.542;13.426;2023-03-19T16:09:26;13.32;;;9.40;;
30046;SDS011;16878;52.542;13.426;2023-03-19T16:11:57;17.92;;;10.57;;
30046;SDS011;16878;52.542;13.426;2023-03-19T16:14:25;16.58;;;10.35;;
30046;SDS011;16878;52.542;13.426;2023-03-19T16:16:52;18.13;;;10.82;;
30046;SDS011;16878;52.542;13.426;2023-03-19T16:19:35;18.25;;;10.77;;
30046;SDS011;16878;52.542;13.426;2023-03-19T16:22:15;17.90;;;11.32;;
30046;SDS011;16878;52.542;13.426;2023-03-19T16:24:45;16.23;;;10.77;;
30046;SDS011;16878;52.542;13.426;2023-03-19T16:27:14;14.77;;;10.65;;
30046;SDS011;16878;52.542;13.426;2023-03-19T16:29:45;15.43;;;10.70;;
30046;SDS011;16878;52.542;13.426;2023-03-19T16:32:25;18.95;;;10.77;;
30046;SDS011;16878;52.542;13.426;2023-03-19T16:34:53;21.73;;;11.23;;